Hyde Park, Illinois
Current Conditions -  °F | °C
As of 4:53 AM on Tuesday 21 Oct 2014 (Local Time) from KMDW Reporting Station
Overcast Overcast  
Wind Chill: 52°   Ceiling: 5000
Heat Index: 52°   Visibility: 10mi
Dew Point: 43°   Wind: 9mph
Humidity: 71%   Direction: 350°N
Pressure: 30.04"   Gusts: NA
Location:  41.8194°N, 87.6099°W
Report Text: KMDW 210953Z 35008KT 10SM FEW037 OVC050 11/06 A3004 RMK AO2 SLP173 T01110061
Loading
Personal Weather Stations






























Interactive Weather Map
Tropical Storm Tracking
New forecast layout! Learn more

10-Day Weather Forecast

Advertisements
Track Severe Weather on mobile